LIRA/CIA METAR and TAF weather

Enter ICAO airport designator
Station Type Date Time Source
LIRA METAR 2022/11/26 07:50 UTC NOAA

LIRA 260750Z 10008KT 060V140 9999 BKN060 13/06 Q1014


Station Type Date Time Source
LIRA Decoded METAR 2022/11/26 07:50 UTC NOAA

Roma / Ciampino, Italy (LIRA) 41-47N 012-35E 105M
Nov 26, 2022 - 02:50 AM EST / 2022.11.26 0750 UTC
Wind: from the E (100 degrees) at 9 MPH (8 KT) (direction variable):0
Visibility: greater than 7 mile(s):0
Sky conditions: mostly cloudy
Temperature: 55 F (13 C)
Dew Point: 42 F (6 C)
Relative Humidity: 62%
Pressure (altimeter): 29.94 in. Hg (1014 hPa)
ob: LIRA 260750Z 10008KT 060V140 9999 BKN060 13/06 Q1014
cycle: 8

Station Type Date Time Source
LIRA TAF 2022/11/26 06:21 UTC NOAA

TAF LIRA 260500Z 2606/2706 06016G26KT 9999 BKN040
TEMPO 2606/2616 4000 SHRA
BECMG 2618/2620 06006KT

Example: see airport list